Terminal Aerodrome Forecast
Issued by NWS

Home | Current Version | Previous Version | Text Only | Print | Product List | Glossary On
Versions: 1 2 3 4 5 6 7 8 9 10 11 12 13 14 15 16 17 18
000
FTAK31 PAJN 281700
TAFASI
TAF
PASI 281720Z 2818/2918 VRB03KT P6SM -RA FEW010 FEW045 OVC070
     FM282100 14008KT P6SM -RA FEW010 SCT025 OVC050
     FM290000 18006KT 5SM -RA BKN020 OVC040
     FM290600 16005KT 4SM -RA BR BKN015 OVC025=

USA.gov is the U.S. government's official web portal to all federal, state and local government web resources and services.